Time;durP1;ratioP1;P1;durP2;ratioP2;P2;SDS_P1;SDS_P2;PMS_P1;PMS_P2;Temp;Humidity;BMP_temperature;BMP_pressure;BME280_temperature;BME280_humidity;BME280_pressure;Samples;Min_cycle;Max_cycle;Signal;HPM_P1;HPM_P2
2023/02/12 05:07:10;;;;;;;17.98;12.70;;;5.80;99.90;;;;;;4992980;28;20238;-68
2023/02/12 05:09:36;;;;;;;20.30;12.23;;;5.80;99.90;;;;;;4994398;28;20571;-69
2023/02/12 05:12:01;;;;;;;15.97;11.97;;;5.80;99.90;;;;;;4994353;28;20171;-66
2023/02/12 05:14:27;;;;;;;18.03;12.50;;;5.80;99.90;;;;;;4993745;28;20187;-68
2023/02/12 05:16:53;;;;;;;19.43;12.50;;;5.80;99.90;;;;;;4994099;28;20164;-68
2023/02/12 05:19:18;;;;;;;15.90;11.23;;;5.80;99.90;;;;;;4994277;28;20174;-66
2023/02/12 05:21:44;;;;;;;19.17;11.60;;;5.80;99.90;;;;;;4994166;28;20186;-66
2023/02/12 05:24:09;;;;;;;22.90;13.77;;;5.80;99.90;;;;;;4993776;28;20183;-66
2023/02/12 05:26:36;;;;;;;13.33;10.30;;;5.80;99.90;;;;;;4994127;28;20187;-66
2023/02/12 05:29:02;;;;;;;17.95;12.63;;;5.80;99.90;;;;;;4994023;28;20206;-66
2023/02/12 05:31:27;;;;;;;18.50;11.88;;;5.80;99.90;;;;;;4993930;28;20187;-66
2023/02/12 05:33:53;;;;;;;15.00;12.23;;;5.80;99.90;;;;;;4993226;28;20236;-65
2023/02/12 05:36:21;;;;;;;21.50;14.23;;;5.80;99.90;;;;;;4993890;28;20676;-67
2023/02/12 05:38:47;;;;;;;15.65;12.48;;;5.80;99.90;;;;;;4993749;28;20274;-67
2023/02/12 05:41:16;;;;;;;12.60;10.90;;;5.80;99.90;;;;;;4993920;28;20651;-67
2023/02/12 05:43:42;;;;;;;17.33;12.00;;;5.80;99.90;;;;;;4992102;28;20206;-66
2023/02/12 05:46:08;;;;;;;15.00;10.53;;;5.80;99.90;;;;;;4993663;28;20642;-66
2023/02/12 05:48:35;;;;;;;17.90;12.98;;;5.80;99.90;;;;;;4993967;28;20464;-67
2023/02/12 05:51:02;;;;;;;16.73;11.75;;;5.80;99.90;;;;;;4997892;28;20201;-67
2023/02/12 05:53:27;;;;;;;17.00;12.90;;;5.70;99.90;;;;;;4997531;28;20597;-67
2023/02/12 05:55:53;;;;;;;18.97;11.60;;;5.70;99.90;;;;;;4997750;28;20187;-67
2023/02/12 05:58:19;;;;;;;16.10;11.63;;;5.80;99.90;;;;;;4996566;28;20192;-66
2023/02/12 06:00:44;;;;;;;18.20;10.60;;;5.80;99.90;;;;;;4997673;28;20580;-65
2023/02/12 06:03:10;;;;;;;17.90;12.87;;;5.80;99.90;;;;;;4996331;28;20192;-67
2023/02/12 06:05:35;;;;;;;16.47;10.90;;;5.80;99.90;;;;;;4997443;28;20249;-67
2023/02/12 06:08:01;;;;;;;15.60;10.30;;;5.70;99.90;;;;;;4996813;28;20719;-68
2023/02/12 06:10:26;;;;;;;16.00;12.27;;;5.70;99.90;;;;;;4995884;28;20235;-66
2023/02/12 06:12:53;;;;;;;14.57;11.53;;;5.70;99.90;;;;;;4996982;28;20194;-68
2023/02/12 06:15:19;;;;;;;14.10;12.65;;;5.70;99.90;;;;;;4997324;28;20553;-66
2023/02/12 06:17:44;;;;;;;16.83;10.50;;;5.70;99.90;;;;;;4997293;28;20172;-67
2023/02/12 06:20:10;;;;;;;15.00;11.47;;;5.60;99.90;;;;;;4997305;28;20186;-68
2023/02/12 06:22:37;;;;;;;15.03;10.93;;;5.50;99.90;;;;;;4996954;28;20194;-67
2023/02/12 06:25:03;;;;;;;15.82;10.98;;;5.50;99.90;;;;;;4996768;28;20190;-66
2023/02/12 06:27:29;;;;;;;20.67;13.18;;;5.50;99.90;;;;;;4997017;28;20198;-67
2023/02/12 06:29:54;;;;;;;19.93;11.50;;;5.40;99.90;;;;;;4997442;28;20178;-67
2023/02/12 06:32:20;;;;;;;16.83;12.00;;;5.50;99.90;;;;;;4996727;28;20345;-67
2023/02/12 06:34:45;;;;;;;16.77;12.70;;;5.40;99.90;;;;;;4996497;28;20189;-67
2023/02/12 06:37:11;;;;;;;15.37;12.63;;;5.40;99.90;;;;;;4996910;28;20187;-66
2023/02/12 06:39:37;;;;;;;15.90;11.43;;;5.40;99.90;;;;;;4996960;28;20183;-67
2023/02/12 06:42:03;;;;;;;19.13;13.27;;;5.40;99.90;;;;;;4996683;28;20816;-67
2023/02/12 06:44:28;;;;;;;19.63;10.67;;;5.30;99.90;;;;;;4996349;28;20428;-67
2023/02/12 06:46:54;;;;;;;15.40;11.17;;;5.30;99.90;;;;;;4996758;28;20177;-68
2023/02/12 06:49:20;;;;;;;17.60;13.30;;;5.30;99.90;;;;;;4996745;28;20226;-68
2023/02/12 06:51:45;;;;;;;13.80;11.17;;;5.30;99.90;;;;;;4996613;28;20266;-67
2023/02/12 06:54:13;;;;;;;17.27;12.10;;;5.30;99.90;;;;;;4996248;28;20198;-69
2023/02/12 06:56:38;;;;;;;12.15;10.82;;;5.30;99.90;;;;;;4996793;28;20207;-68
2023/02/12 06:59:04;;;;;;;13.13;10.47;;;5.30;99.90;;;;;;4996509;28;20532;-67
2023/02/12 07:01:30;;;;;;;14.23;10.00;;;5.30;99.90;;;;;;4994701;28;20182;-64
2023/02/12 07:04:01;;;;;;;13.85;11.40;;;5.40;99.90;;;;;;4995528;28;20206;-66
2023/02/12 07:06:28;;;;;;;15.98;10.88;;;5.40;99.90;;;;;;4995608;28;20194;-68
2023/02/12 07:08:55;;;;;;;16.50;11.60;;;5.50;99.90;;;;;;4993506;28;20214;-66
2023/02/12 07:11:30;;;;;;;16.55;11.48;;;5.50;99.90;;;;;;4996089;28;20179;-67
2023/02/12 07:13:55;;;;;;;19.90;12.90;;;5.60;99.90;;;;;;4994477;28;20194;-62
2023/02/12 07:16:21;;;;;;;17.97;12.77;;;5.70;99.90;;;;;;4996220;28;20305;-65
2023/02/12 07:18:47;;;;;;;13.45;9.23;;;5.70;99.90;;;;;;4995613;28;20660;-65
2023/02/12 07:21:14;;;;;;;17.70;11.00;;;5.70;99.90;;;;;;4996266;28;20178;-67
2023/02/12 07:23:47;;;;;;;13.90;11.68;;;5.80;99.90;;;;;;4995480;28;20432;-64
2023/02/12 07:26:14;;;;;;;15.15;12.48;;;5.70;99.90;;;;;;4996250;28;20178;-70
2023/02/12 07:28:40;;;;;;;15.07;11.05;;;5.80;99.90;;;;;;4995514;28;20608;-67
2023/02/12 07:31:10;;;;;;;17.73;10.90;;;5.80;99.90;;;;;;4995775;28;20171;-66
2023/02/12 07:33:37;;;;;;;15.13;12.50;;;5.90;99.90;;;;;;4994662;28;20179;-66
2023/02/12 07:36:04;;;;;;;24.27;12.20;;;5.90;99.90;;;;;;4995397;28;20587;-66
2023/02/12 07:38:30;;;;;;;25.52;13.82;;;6.00;99.90;;;;;;4995729;28;20174;-66
2023/02/12 07:41:09;;;;;;;19.93;13.63;;;5.90;99.90;;;;;;4995797;28;20663;-65
2023/02/12 07:43:35;;;;;;;20.90;14.40;;;5.90;99.90;;;;;;4995108;28;20183;-66
2023/02/12 07:46:12;;;;;;;18.00;13.40;;;5.90;99.90;;;;;;4995505;28;20240;-65
2023/02/12 07:48:38;;;;;;;24.35;12.80;;;6.00;99.90;;;;;;4995027;28;20260;-66
2023/02/12 07:51:09;;;;;;;18.80;12.73;;;6.00;99.90;;;;;;4995641;28;20178;-67
2023/02/12 07:53:36;;;;;;;16.90;13.38;;;6.10;99.90;;;;;;4993362;28;20183;-66
2023/02/12 07:56:09;;;;;;;23.52;13.23;;;6.10;99.90;;;;;;4995192;28;20660;-66
2023/02/12 07:58:36;;;;;;;19.83;13.52;;;6.20;99.90;;;;;;4994425;28;20180;-66
2023/02/12 08:01:11;;;;;;;17.48;11.77;;;6.20;99.90;;;;;;4995063;28;20592;-68
2023/02/12 08:03:37;;;;;;;20.27;12.82;;;6.30;99.90;;;;;;4994821;28;20200;-68
2023/02/12 08:06:18;;;;;;;25.37;13.07;;;6.40;99.90;;;;;;4993959;28;20195;-72
2023/02/12 08:08:44;;;;;;;14.30;12.85;;;6.40;99.90;;;;;;4994835;28;20207;-68
2023/02/12 08:11:12;;;;;;;17.88;13.90;;;6.50;99.90;;;;;;4993834;28;20630;-66
2023/02/12 08:13:38;;;;;;;17.52;12.68;;;6.60;99.90;;;;;;4993957;28;20237;-66
2023/02/12 08:16:10;;;;;;;18.97;13.57;;;6.60;99.90;;;;;;4994410;28;20179;-65
2023/02/12 08:18:35;;;;;;;17.10;12.70;;;6.60;99.90;;;;;;4994561;28;20480;-67
2023/02/12 08:21:14;;;;;;;20.67;15.03;;;6.60;99.90;;;;;;4993404;28;20183;-65
2023/02/12 08:23:41;;;;;;;18.75;12.45;;;6.70;99.90;;;;;;4992821;28;20174;-63
2023/02/12 08:26:17;;;;;;;14.23;11.55;;;6.70;99.90;;;;;;4993828;28;20178;-66
2023/02/12 08:28:46;;;;;;;19.05;13.05;;;6.70;99.90;;;;;;4994738;28;20205;-66
2023/02/12 08:31:18;;;;;;;22.08;14.38;;;6.70;99.90;;;;;;4993640;28;20267;-67
2023/02/12 08:33:46;;;;;;;22.35;12.95;;;6.80;99.90;;;;;;4994110;28;20182;-66
2023/02/12 08:36:14;;;;;;;19.55;12.75;;;6.80;99.90;;;;;;4994095;28;20574;-66
2023/02/12 08:38:41;;;;;;;19.73;12.98;;;6.90;99.90;;;;;;4991484;28;20178;-70
2023/02/12 08:41:14;;;;;;;17.75;12.63;;;7.00;99.90;;;;;;4993254;28;20209;-68
2023/02/12 08:43:40;;;;;;;23.80;14.40;;;7.10;99.90;;;;;;4989220;28;20186;-69
2023/02/12 08:46:12;;;;;;;23.75;13.43;;;7.10;99.90;;;;;;4994085;28;20190;-68
2023/02/12 08:48:38;;;;;;;19.55;14.15;;;7.20;99.90;;;;;;4994214;28;20593;-69
2023/02/12 08:51:15;;;;;;;17.60;13.50;;;7.20;99.90;;;;;;4993685;28;20234;-71
2023/02/12 08:53:43;;;;;;;19.65;14.25;;;7.30;99.90;;;;;;4993835;28;20181;-70
2023/02/12 08:56:10;;;;;;;19.40;14.07;;;7.40;99.90;;;;;;4994261;28;20206;-71
2023/02/12 08:58:36;;;;;;;17.30;14.57;;;7.50;99.90;;;;;;4993916;28;20210;-72
2023/02/12 09:01:04;;;;;;;16.85;12.35;;;7.60;99.90;;;;;;4993842;28;20183;-69
2023/02/12 09:03:30;;;;;;;17.20;14.27;;;7.70;99.90;;;;;;4993398;28;20218;-70
2023/02/12 09:05:56;;;;;;;22.25;14.00;;;7.80;99.90;;;;;;4993468;28;20274;-70
2023/02/12 09:08:21;;;;;;;19.27;13.97;;;7.90;99.90;;;;;;4993530;28;20273;-69
2023/02/12 09:10:47;;;;;;;20.63;14.90;;;7.90;99.90;;;;;;4993607;28;20179;-69
2023/02/12 09:13:14;;;;;;;17.30;15.17;;;7.90;99.90;;;;;;4991924;28;20179;-65
2023/02/12 09:15:42;;;;;;;19.50;14.43;;;8.00;99.90;;;;;;4993676;28;20227;-69
2023/02/12 09:18:09;;;;;;;19.23;14.52;;;8.10;99.90;;;;;;4991077;28;20183;-69
2023/02/12 09:20:38;;;;;;;23.30;15.98;;;8.20;99.90;;;;;;4992412;28;20239;-70
2023/02/12 09:23:05;;;;;;;24.05;16.25;;;8.30;99.90;;;;;;4993036;28;20206;-71
2023/02/12 09:25:33;;;;;;;15.73;12.50;;;8.50;99.90;;;;;;4993860;28;20202;-70
2023/02/12 09:27:59;;;;;;;20.90;15.15;;;8.50;99.90;;;;;;4993251;28;20188;-71
2023/02/12 09:30:25;;;;;;;19.42;14.05;;;8.70;99.90;;;;;;4994181;28;20172;-72
2023/02/12 09:32:50;;;;;;;16.37;13.63;;;8.80;99.90;;;;;;4993528;28;20172;-64
2023/02/12 09:35:17;;;;;;;17.60;11.47;;;8.90;99.90;;;;;;4993414;28;20192;-69
2023/02/12 09:37:43;;;;;;;17.65;12.65;;;9.00;99.90;;;;;;4993091;28;20172;-70
2023/02/12 09:40:18;;;;;;;18.77;13.23;;;9.20;99.90;;;;;;4993680;28;20270;-65
2023/02/12 09:42:55;;;;;;;16.70;13.10;;;9.30;99.90;;;;;;4993106;28;20177;-63
2023/02/12 09:45:29;;;;;;;15.63;10.80;;;9.50;99.90;;;;;;4989237;28;20291;-64
2023/02/12 09:48:10;;;;;;;16.47;12.27;;;9.70;99.90;;;;;;4992268;28;20213;-64
2023/02/12 09:50:52;;;;;;;16.93;12.40;;;9.80;99.90;;;;;;4993591;28;20424;-64
2023/02/12 09:53:23;;;;;;;19.97;12.00;;;9.90;99.90;;;;;;4993111;28;20424;-67
2023/02/12 09:55:50;;;;;;;18.90;12.03;;;10.00;99.90;;;;;;4993196;28;20929;-67
2023/02/12 09:58:34;;;;;;;19.67;11.40;;;10.00;99.90;;;;;;4992896;28;20763;-74
2023/02/12 10:01:00;;;;;;;17.53;11.90;;;10.10;99.90;;;;;;4992203;28;20515;-72
2023/02/12 10:03:29;;;;;;;18.75;11.23;;;10.20;99.90;;;;;;4992983;28;20984;-70
2023/02/12 10:06:08;;;;;;;13.13;11.27;;;10.20;99.90;;;;;;4989010;28;20649;-73
2023/02/12 10:09:01;;;;;;;14.43;10.97;;;10.20;99.90;;;;;;4990589;28;20833;-72
2023/02/12 10:11:27;;;;;;;12.60;10.30;;;10.10;99.90;;;;;;4993662;28;20397;-71
2023/02/12 10:14:07;;;;;;;13.70;9.70;;;10.20;99.90;;;;;;4992817;28;20623;-70
2023/02/12 10:16:35;;;;;;;13.13;10.30;;;10.20;99.90;;;;;;4993736;28;20239;-66
2023/02/12 10:19:13;;;;;;;16.70;11.20;;;10.20;99.90;;;;;;4993254;28;20190;-70
2023/02/12 10:22:09;;;;;;;12.23;10.13;;;10.20;99.90;;;;;;4993346;28;20926;-74
2023/02/12 10:25:15;;;;;;;13.67;10.80;;;10.20;99.90;;;;;;4992493;28;21028;-72
2023/02/12 10:27:51;;;;;;;10.77;8.80;;;10.20;99.90;;;;;;4992950;28;20501;-70
2023/02/12 10:30:48;;;;;;;6.67;5.60;;;10.30;99.90;;;;;;4993445;28;20408;-70
2023/02/12 10:33:28;;;;;;;8.60;6.00;;;10.30;99.90;;;;;;4976156;28;20429;-72
2023/02/12 10:36:02;;;;;;;6.90;5.60;;;10.30;99.90;;;;;;4996071;28;20394;-66
2023/02/12 10:38:34;;;;;;;6.67;5.20;;;10.30;99.90;;;;;;4996610;28;20451;-69
2023/02/12 10:41:01;;;;;;;4.33;3.80;;;10.20;99.90;;;;;;4997080;28;20434;-68
2023/02/12 10:43:28;;;;;;;2.43;2.10;;;10.20;99.90;;;;;;4995989;28;20424;-69
2023/02/12 10:45:53;;;;;;;4.10;2.07;;;10.20;99.90;;;;;;4996496;28;20404;-69
2023/02/12 10:48:29;;;;;;;1.70;1.60;;;10.10;99.90;;;;;;4996082;28;20452;-69
2023/02/12 10:51:06;;;;;;;2.73;2.10;;;10.10;99.90;;;;;;4996757;28;20168;-69
2023/02/12 10:53:40;;;;;;;2.00;1.90;;;10.00;99.90;;;;;;4994414;28;20917;-75
2023/02/12 10:56:09;;;;;;;1.95;1.77;;;9.90;99.90;;;;;;4996808;28;20217;-71
2023/02/12 10:58:35;;;;;;;2.45;2.25;;;9.90;99.90;;;;;;4995001;28;20262;-72
2023/02/12 11:01:01;;;;;;;3.90;3.03;;;9.80;99.90;;;;;;4995144;28;20315;-68
2023/02/12 11:03:36;;;;;;;4.30;3.33;;;9.80;99.90;;;;;;4996072;28;20573;-73
2023/02/12 11:06:15;;;;;;;3.20;2.55;;;9.80;99.90;;;;;;4996269;28;20215;-73
2023/02/12 11:08:42;;;;;;;3.05;2.65;;;9.80;99.90;;;;;;4995895;28;20195;-72
2023/02/12 11:11:37;;;;;;;2.80;2.57;;;9.90;99.90;;;;;;4996294;28;20177;-72
2023/02/12 11:14:06;;;;;;;4.30;2.47;;;10.00;99.90;;;;;;4995190;28;20464;-70
2023/02/12 11:16:37;;;;;;;3.33;2.72;;;10.10;99.90;;;;;;4996047;28;20640;-70
2023/02/12 11:24:29;;;;;;;3.17;2.50;;;10.20;99.90;;;;;;5032923;28;20482;-66
2023/02/12 11:27:28;;;;;;;2.63;2.40;;;10.30;99.90;;;;;;5035317;28;20528;-66
2023/02/12 11:30:12;;;;;;;3.67;3.17;;;10.20;99.90;;;;;;5034267;28;20417;-68
2023/02/12 11:32:38;;;;;;;2.92;2.72;;;10.20;99.90;;;;;;5034344;28;20438;-66
2023/02/12 11:35:11;;;;;;;6.30;3.97;;;10.10;99.90;;;;;;5020165;28;20186;-67
2023/02/12 11:37:40;;;;;;;5.10;3.00;;;10.10;99.90;;;;;;5027299;28;20175;-67
2023/02/12 11:40:12;;;;;;;4.40;3.55;;;10.20;99.90;;;;;;5035082;28;20167;-67
2023/02/12 11:42:42;;;;;;;4.35;3.47;;;10.30;99.90;;;;;;5034549;28;20591;-67
2023/02/12 11:45:18;;;;;;;4.80;3.70;;;10.30;99.90;;;;;;5017242;28;20183;-67
2023/02/12 11:47:45;;;;;;;3.47;3.27;;;10.40;99.90;;;;;;5030643;28;20457;-66
2023/02/12 11:50:27;;;;;;;2.77;2.50;;;10.50;99.90;;;;;;5002861;28;20933;-64
2023/02/12 11:52:58;;;;;;;8.57;3.70;;;10.50;99.90;;;;;;5022615;28;20533;-71
2023/02/12 11:55:30;;;;;;;4.30;2.90;;;10.50;99.90;;;;;;5034046;28;20422;-66
2023/02/12 11:58:23;;;;;;;3.37;3.07;;;10.60;99.90;;;;;;5034752;28;20441;-66
2023/02/12 12:01:20;;;;;;;3.43;2.17;;;10.70;99.90;;;;;;5029329;28;20443;-67
2023/02/12 12:04:06;;;;;;;3.23;2.50;;;10.70;99.90;;;;;;4997209;28;20524;-67
2023/02/12 12:06:51;;;;;;;3.70;3.00;;;10.90;99.90;;;;;;5034934;28;20493;-67
2023/02/12 12:09:39;;;;;;;4.20;2.80;;;11.00;99.90;;;;;;5034155;28;20813;-66
2023/02/12 12:12:44;;;;;;;3.37;2.23;;;11.10;99.90;;;;;;5034086;28;20519;-67
2023/02/12 12:21:46;;;;;;;2.70;2.50;;;11.10;99.90;;;;;;5021961;28;20443;-67
2023/02/12 12:24:25;;;;;;;3.60;3.30;;;10.90;99.90;;;;;;5017290;28;20443;-68
2023/02/12 12:27:23;;;;;;;3.97;2.40;;;10.70;99.90;;;;;;5034500;28;20405;-68
2023/02/12 12:29:57;;;;;;;3.10;2.55;;;10.70;99.90;;;;;;5034149;28;20584;-66
2023/02/12 12:32:28;;;;;;;3.43;2.57;;;10.60;99.90;;;;;;5008551;28;20598;-67
2023/02/12 12:34:54;;;;;;;3.03;2.80;;;10.60;99.90;;;;;;5014558;28;20413;-67
2023/02/12 12:37:31;;;;;;;2.90;2.70;;;10.70;99.90;;;;;;5014819;28;20431;-67
2023/02/12 12:40:03;;;;;;;3.17;2.63;;;10.80;99.90;;;;;;5032938;28;20176;-67
2023/02/12 12:42:59;;;;;;;3.10;2.80;;;10.90;99.90;;;;;;5033621;28;20427;-68
2023/02/12 12:45:37;;;;;;;4.10;2.75;;;10.90;99.90;;;;;;5032009;28;20426;-67
2023/02/12 12:48:20;;;;;;;2.50;2.30;;;11.00;99.90;;;;;;5014040;28;20553;-68
2023/02/12 12:51:01;;;;;;;3.65;2.80;;;11.00;99.90;;;;;;5021370;28;20420;-67
2023/02/12 12:53:42;;;;;;;2.70;2.50;;;11.00;99.90;;;;;;5034007;28;20169;-67
2023/02/12 12:56:45;;;;;;;5.93;3.28;;;10.90;99.90;;;;;;5015741;28;20451;-66
2023/02/12 12:59:16;;;;;;;4.65;2.63;;;10.80;99.90;;;;;;5033373;28;20180;-67
2023/02/12 13:02:01;;;;;;;2.58;2.03;;;10.70;99.90;;;;;;5033388;28;20186;-68
2023/02/12 13:05:00;;;;;;;3.97;3.33;;;10.80;99.90;;;;;;5033810;28;20277;-68
2023/02/12 13:08:00;;;;;;;3.00;2.55;;;10.80;99.90;;;;;;5015326;28;20457;-67
2023/02/12 13:10:34;;;;;;;4.10;2.73;;;10.90;99.90;;;;;;5033171;28;20194;-68
2023/02/12 13:13:25;;;;;;;2.80;2.55;;;10.90;99.90;;;;;;5033484;28;20497;-67
2023/02/12 13:16:09;;;;;;;3.45;2.55;;;10.90;99.90;;;;;;5033636;28;20167;-67
2023/02/12 13:18:57;;;;;;;3.03;2.72;;;10.90;99.90;;;;;;5033654;28;20636;-67
2023/02/12 13:21:54;;;;;;;4.57;2.85;;;10.80;99.90;;;;;;5033345;28;20201;-66
2023/02/12 13:24:24;;;;;;;3.00;2.45;;;10.70;99.90;;;;;;5020010;28;20240;-66
2023/02/12 13:27:00;;;;;;;2.58;2.35;;;10.70;99.90;;;;;;5033482;28;20536;-68
2023/02/12 13:29:41;;;;;;;2.67;2.05;;;10.70;99.90;;;;;;5033739;28;20221;-68
2023/02/12 13:32:26;;;;;;;4.35;2.40;;;10.70;99.90;;;;;;5033220;28;20185;-68
2023/02/12 13:34:53;;;;;;;2.25;2.05;;;10.60;99.90;;;;;;5033620;28;20165;-68
2023/02/12 13:37:44;;;;;;;1.73;1.63;;;10.50;99.90;;;;;;5033346;28;20167;-67
2023/02/12 13:40:16;;;;;;;3.33;1.95;;;10.50;99.90;;;;;;5033403;28;20171;-69
2023/02/12 13:43:06;;;;;;;3.45;2.13;;;10.50;99.90;;;;;;5032901;28;20611;-68
2023/02/12 13:45:54;;;;;;;2.92;2.60;;;10.40;99.90;;;;;;5033099;28;20178;-68
2023/02/12 13:48:38;;;;;;;2.60;2.40;;;10.40;99.90;;;;;;5033496;28;20197;-67
2023/02/12 13:51:08;;;;;;;3.05;2.63;;;10.40;99.90;;;;;;5033017;28;20224;-67
2023/02/12 13:54:03;;;;;;;1.60;1.50;;;10.40;99.90;;;;;;5033604;28;20176;-69
2023/02/12 13:56:42;;;;;;;1.77;1.67;;;10.30;99.90;;;;;;5033443;28;20173;-68
2023/02/12 13:59:30;;;;;;;2.10;1.95;;;10.30;99.90;;;;;;5033334;28;20635;-68
2023/02/12 14:01:56;;;;;;;2.33;2.00;;;10.30;99.90;;;;;;5032861;28;20198;-68
2023/02/12 14:04:29;;;;;;;2.10;1.90;;;10.30;99.90;;;;;;5033039;28;20509;-67
2023/02/12 14:07:10;;;;;;;1.90;1.80;;;10.30;99.90;;;;;;5033319;28;20225;-67
2023/02/12 14:09:45;;;;;;;1.83;1.20;;;10.20;99.90;;;;;;5033698;28;20183;-69
2023/02/12 14:12:24;;;;;;;1.60;1.50;;;10.20;99.90;;;;;;5036376;28;20197;-67
2023/02/12 14:15:06;;;;;;;1.92;1.75;;;10.10;99.90;;;;;;5037033;28;20177;-67
2023/02/12 14:17:31;;;;;;;3.08;2.28;;;10.10;99.90;;;;;;5037039;28;20166;-67
2023/02/12 14:20:35;;;;;;;4.53;2.20;;;10.10;99.90;;;;;;5036777;28;20177;-67
2023/02/12 14:23:23;;;;;;;1.50;1.40;;;10.10;99.90;;;;;;5036645;28;20205;-67
2023/02/12 14:26:08;;;;;;;1.30;1.30;;;10.10;99.90;;;;;;5036551;28;20202;-66
2023/02/12 14:28:55;;;;;;;1.60;1.30;;;10.10;99.90;;;;;;5036391;28;20219;-68
2023/02/12 14:31:21;;;;;;;2.30;1.58;;;10.00;99.90;;;;;;5036151;28;20201;-67
2023/02/12 14:33:50;;;;;;;1.40;1.30;;;10.00;99.90;;;;;;5036743;28;20569;-68
2023/02/12 14:36:32;;;;;;;1.20;1.20;;;10.00;99.90;;;;;;5036606;28;20316;-65
2023/02/12 14:39:17;;;;;;;2.17;1.75;;;10.00;99.90;;;;;;5036635;28;20171;-67
2023/02/12 14:41:44;;;;;;;1.33;1.33;;;10.00;99.90;;;;;;5036440;28;20190;-69
2023/02/12 14:44:16;;;;;;;1.70;1.58;;;10.10;99.90;;;;;;5036475;28;20174;-68
2023/02/12 14:46:45;;;;;;;1.95;1.42;;;10.00;99.90;;;;;;5036328;28;20308;-68
2023/02/12 14:49:37;;;;;;;1.75;1.65;;;10.00;99.90;;;;;;5036433;28;20217;-68
2023/02/12 14:52:05;;;;;;;2.25;1.42;;;10.00;99.90;;;;;;5035860;28;20228;-68
2023/02/12 14:55:03;;;;;;;1.73;1.52;;;10.00;99.90;;;;;;5036228;28;20166;-67
2023/02/12 14:57:28;;;;;;;1.33;1.23;;;10.00;99.90;;;;;;5036367;28;20189;-67
2023/02/12 14:59:57;;;;;;;1.60;1.50;;;10.00;99.90;;;;;;5036137;28;20174;-68
2023/02/12 15:02:26;;;;;;;1.67;1.40;;;10.00;99.90;;;;;;5035456;28;20218;-68
2023/02/12 15:04:57;;;;;;;2.28;1.52;;;10.00;99.90;;;;;;5036317;28;20640;-68
2023/02/12 15:07:42;;;;;;;1.52;1.42;;;10.00;99.90;;;;;;5036004;28;20581;-67
2023/02/12 15:10:15;;;;;;;1.67;1.58;;;10.00;99.90;;;;;;5035887;28;20181;-68
2023/02/12 15:12:50;;;;;;;1.65;1.55;;;10.10;99.90;;;;;;5035404;28;20244;-67
2023/02/12 15:15:46;;;;;;;1.60;1.50;;;10.10;99.90;;;;;;5035839;28;20184;-68
2023/02/12 15:18:16;;;;;;;1.40;1.30;;;10.00;99.90;;;;;;5035854;28;20182;-68
2023/02/12 15:20:53;;;;;;;2.53;1.95;;;10.00;99.90;;;;;;5035186;28;20170;-68
2023/02/12 15:23:31;;;;;;;1.77;1.65;;;10.10;99.90;;;;;;5035286;28;20211;-68
2023/02/12 15:25:58;;;;;;;1.42;1.42;;;10.00;99.90;;;;;;5036047;28;20590;-66
2023/02/12 15:28:32;;;;;;;1.73;1.08;;;10.00;99.90;;;;;;5035571;28;20194;-68
2023/02/12 15:31:00;;;;;;;3.63;1.60;;;10.00;99.90;;;;;;5035161;28;20527;-68
2023/02/12 15:33:29;;;;;;;1.90;1.50;;;10.00;99.90;;;;;;5017723;28;20174;-69
2023/02/12 15:35:56;;;;;;;1.65;1.55;;;9.90;99.90;;;;;;5035318;28;20273;-68
2023/02/12 15:38:30;;;;;;;1.67;1.30;;;9.90;99.90;;;;;;5035470;28;20166;-69
2023/02/12 15:40:58;;;;;;;1.95;1.63;;;9.90;99.90;;;;;;5034707;28;20173;-68
2023/02/12 15:43:28;;;;;;;1.75;1.60;;;9.90;99.90;;;;;;5035108;28;20192;-69
2023/02/12 15:45:54;;;;;;;1.08;0.98;;;9.90;99.90;;;;;;5035316;28;20730;-68
2023/02/12 15:48:22;;;;;;;1.40;1.30;;;9.80;99.90;;;;;;5035212;28;20284;-69
2023/02/12 15:50:54;;;;;;;1.80;1.55;;;9.90;99.90;;;;;;5034793;28;20170;-69
2023/02/12 15:53:23;;;;;;;1.50;1.40;;;9.80;99.90;;;;;;5034732;28;20585;-68
2023/02/12 15:55:49;;;;;;;1.40;1.30;;;9.80;99.90;;;;;;5035008;28;20672;-68
2023/02/12 15:58:24;;;;;;;1.10;1.10;;;9.70;99.90;;;;;;5034792;28;20196;-67
2023/02/12 16:00:51;;;;;;;1.63;1.30;;;9.70;99.90;;;;;;5016462;28;20294;-67
2023/02/12 16:03:32;;;;;;;1.42;1.33;;;9.60;99.90;;;;;;5016741;28;20191;-68
2023/02/12 16:06:05;;;;;;;1.90;1.80;;;9.60;99.90;;;;;;5034774;28;20181;-67
2023/02/12 16:08:33;;;;;;;1.55;1.45;;;9.60;99.90;;;;;;5034810;28;20198;-67
2023/02/12 16:11:00;;;;;;;1.50;1.50;;;9.50;99.90;;;;;;5034670;28;20180;-67
2023/02/12 16:13:34;;;;;;;1.35;1.25;;;9.50;99.90;;;;;;5034822;28;20166;-69
2023/02/12 16:16:12;;;;;;;2.20;1.88;;;9.40;99.90;;;;;;5016816;28;20236;-67
2023/02/12 16:18:39;;;;;;;3.13;2.70;;;9.40;99.90;;;;;;5034554;28;20265;-68
2023/02/12 16:21:20;;;;;;;2.85;1.85;;;9.30;99.90;;;;;;5033377;28;20232;-67
2023/02/12 16:23:49;;;;;;;2.00;1.60;;;9.30;99.90;;;;;;5016487;28;20194;-68
2023/02/12 16:26:24;;;;;;;2.22;2.00;;;9.20;99.90;;;;;;5016430;28;20182;-68
2023/02/12 16:28:53;;;;;;;2.58;2.17;;;9.20;99.90;;;;;;5034315;28;20193;-67
2023/02/12 16:31:20;;;;;;;1.75;1.65;;;9.10;99.90;;;;;;5033829;28;20162;-67
2023/02/12 16:33:51;;;;;;;1.70;1.60;;;9.00;99.90;;;;;;5033655;28;20166;-66
2023/02/12 16:36:21;;;;;;;2.00;1.85;;;9.00;99.90;;;;;;5016318;28;20300;-67
2023/02/12 16:39:13;;;;;;;1.70;1.60;;;8.90;99.90;;;;;;5016467;28;20662;-67
2023/02/12 16:41:55;;;;;;;1.98;1.77;;;8.90;99.90;;;;;;5031232;28;20244;-67
2023/02/12 16:44:24;;;;;;;2.78;1.55;;;8.80;99.90;;;;;;5034029;28;20178;-67
2023/02/12 16:46:55;;;;;;;1.88;1.77;;;8.80;99.90;;;;;;5015824;28;20189;-66
2023/02/12 16:49:23;;;;;;;2.67;1.77;;;8.80;99.90;;;;;;5032534;28;20198;-67
2023/02/12 16:51:50;;;;;;;1.70;1.60;;;8.70;99.90;;;;;;5033053;28;20190;-66
2023/02/12 16:54:29;;;;;;;2.28;2.17;;;8.70;99.90;;;;;;5012457;28;20261;-69
2023/02/12 16:56:55;;;;;;;6.53;2.60;;;8.60;99.90;;;;;;5012304;28;20264;-66
2023/02/12 16:59:21;;;;;;;2.78;2.50;;;8.50;99.90;;;;;;5015058;28;20205;-66
2023/02/12 17:02:02;;;;;;;2.50;1.57;;;8.50;99.90;;;;;;5033172;28;20275;-66
2023/02/12 17:04:29;;;;;;;2.80;1.95;;;8.40;99.90;;;;;;5033020;28;20201;-64
2023/02/12 17:06:55;;;;;;;2.80;2.00;;;8.40;99.90;;;;;;5026606;28;20582;-65
2023/02/12 17:09:21;;;;;;;2.70;2.50;;;8.30;99.90;;;;;;5025006;28;20190;-62
2023/02/12 17:11:47;;;;;;;3.15;2.45;;;8.20;99.90;;;;;;5021557;28;20209;-61
2023/02/12 17:14:18;;;;;;;5.77;2.73;;;8.10;99.90;;;;;;5021304;28;20563;-65
2023/02/12 17:16:44;;;;;;;3.17;2.88;;;8.00;99.90;;;;;;5022453;28;20204;-66
2023/02/12 17:19:11;;;;;;;4.73;2.93;;;7.90;99.90;;;;;;5020636;28;20175;-63
2023/02/12 17:21:40;;;;;;;2.42;2.22;;;7.80;99.90;;;;;;5020727;28;20439;-64
2023/02/12 17:24:20;;;;;;;3.45;3.15;;;7.70;99.90;;;;;;5023211;28;20191;-62
2023/02/12 17:26:46;;;;;;;3.63;2.90;;;7.60;99.90;;;;;;5021378;28;20173;-62
2023/02/12 17:29:11;;;;;;;2.90;2.70;;;7.50;99.90;;;;;;5005562;28;20734;-64
2023/02/12 17:31:37;;;;;;;3.93;3.50;;;7.40;99.90;;;;;;5022474;28;20660;-65
2023/02/12 17:34:04;;;;;;;4.63;3.60;;;7.30;99.90;;;;;;5002958;28;20181;-64
2023/02/12 17:36:30;;;;;;;5.30;3.92;;;7.30;99.90;;;;;;5021678;28;20177;-64
2023/02/12 17:38:55;;;;;;;6.77;4.10;;;7.20;99.90;;;;;;5022296;28;20257;-64
2023/02/12 17:41:21;;;;;;;3.80;3.50;;;7.20;99.90;;;;;;5022147;28;20433;-65
2023/02/12 17:43:47;;;;;;;5.77;5.20;;;7.10;99.90;;;;;;5004649;28;20184;-65
2023/02/12 17:46:20;;;;;;;4.20;3.80;;;7.00;99.90;;;;;;5017736;28;20184;-64
2023/02/12 17:48:46;;;;;;;7.40;4.38;;;7.00;99.90;;;;;;5017232;28;20193;-64
2023/02/12 17:51:12;;;;;;;5.60;4.90;;;6.90;99.90;;;;;;5017111;28;20178;-66
2023/02/12 17:53:41;;;;;;;5.10;4.60;;;6.90;99.90;;;;;;4999613;28;20423;-67
2023/02/12 17:56:17;;;;;;;5.30;4.80;;;6.90;99.90;;;;;;5017051;28;20561;-66
2023/02/12 17:58:43;;;;;;;7.07;5.05;;;6.80;99.90;;;;;;4999786;28;20189;-66
2023/02/12 18:01:12;;;;;;;6.57;4.90;;;6.80;99.90;;;;;;5033099;28;20549;-65
2023/02/12 18:03:38;;;;;;;6.32;4.93;;;6.70;99.90;;;;;;5037130;28;20528;-64
2023/02/12 18:06:04;;;;;;;8.70;7.25;;;6.70;99.90;;;;;;5036870;28;20558;-65
2023/02/12 18:08:30;;;;;;;6.65;5.13;;;6.60;99.90;;;;;;5036850;28;20611;-69
2023/02/12 18:10:56;;;;;;;6.68;4.35;;;6.60;99.90;;;;;;5003934;28;20234;-63
2023/02/12 18:13:22;;;;;;;4.30;3.47;;;6.50;99.90;;;;;;5020568;28;20209;-62
2023/02/12 18:15:48;;;;;;;6.93;4.20;;;6.50;99.90;;;;;;5028577;28;20182;-67
2023/02/12 18:18:15;;;;;;;7.90;4.70;;;6.50;99.90;;;;;;5017179;28;20176;-68
2023/02/12 18:20:41;;;;;;;7.05;4.80;;;6.40;99.90;;;;;;5025635;28;20202;-65
2023/02/12 18:23:08;;;;;;;5.28;4.63;;;6.40;99.90;;;;;;5036390;28;20252;-67
2023/02/12 18:25:41;;;;;;;5.10;4.60;;;6.40;99.90;;;;;;5036223;28;20184;-65
2023/02/12 18:28:07;;;;;;;5.90;4.60;;;6.30;99.90;;;;;;5036546;28;20201;-65
2023/02/12 18:30:32;;;;;;;7.40;5.17;;;6.30;99.90;;;;;;5035940;28;20213;-65